sensor_id;sensor_type;location;lat;lon;timestamp;pressure;altitude;pressure_sealevel;temperature;humidity
68822;BME280;55834;50.870;4.606;2023-01-15T00:00:58;99384.94;;;7.45;49.91
68822;BME280;55834;50.870;4.606;2023-01-15T00:03:24;99389.78;;;7.56;50.67
68822;BME280;55834;50.870;4.606;2023-01-15T00:05:49;99389.78;;;7.56;50.14
68822;BME280;55834;50.870;4.606;2023-01-15T00:08:14;99390.25;;;7.67;50.27
68822;BME280;55834;50.870;4.606;2023-01-15T00:10:40;99392.56;;;7.75;49.12
68822;BME280;55834;50.870;4.606;2023-01-15T00:13:05;99394.72;;;7.87;49.57
68822;BME280;55834;50.870;4.606;2023-01-15T00:15:31;99386.41;;;7.76;49.39
68822;BME280;55834;50.870;4.606;2023-01-15T00:17:56;99368.56;;;7.84;49.97
68822;BME280;55834;50.870;4.606;2023-01-15T00:20:21;99376.44;;;7.62;51.10
68822;BME280;55834;50.870;4.606;2023-01-15T00:22:47;99366.00;;;7.83;50.66
68822;BME280;55834;50.870;4.606;2023-01-15T00:25:12;99363.56;;;7.31;50.85
68822;BME280;55834;50.870;4.606;2023-01-15T00:27:56;99386.00;;;7.16;51.78
68822;BME280;55834;50.870;4.606;2023-01-15T00:30:21;99392.91;;;7.19;51.66
68822;BME280;55834;50.870;4.606;2023-01-15T00:32:48;99409.75;;;6.33;53.92
68822;BME280;55834;50.870;4.606;2023-01-15T00:35:18;99403.84;;;6.82;53.72
68822;BME280;55834;50.870;4.606;2023-01-15T00:37:45;99400.66;;;7.22;53.24
68822;BME280;55834;50.870;4.606;2023-01-15T00:40:11;99391.25;;;7.40;52.06
68822;BME280;55834;50.870;4.606;2023-01-15T00:42:37;99391.38;;;6.60;53.71
68822;BME280;55834;50.870;4.606;2023-01-15T00:45:04;99397.41;;;6.90;53.60
68822;BME280;55834;50.870;4.606;2023-01-15T00:47:42;99393.22;;;6.31;53.78
68822;BME280;55834;50.870;4.606;2023-01-15T00:50:13;99403.72;;;6.31;54.35
68822;BME280;55834;50.870;4.606;2023-01-15T00:52:38;99399.53;;;6.52;53.53
68822;BME280;55834;50.870;4.606;2023-01-15T00:55:05;99406.56;;;5.96;53.79
68822;BME280;55834;50.870;4.606;2023-01-15T00:57:31;99399.53;;;6.79;52.38
68822;BME280;55834;50.870;4.606;2023-01-15T00:59:56;99396.69;;;6.59;51.92
68822;BME280;55834;50.870;4.606;2023-01-15T01:02:21;99395.88;;;6.83;52.40
68822;BME280;55834;50.870;4.606;2023-01-15T01:04:47;99403.28;;;6.72;51.96
68822;BME280;55834;50.870;4.606;2023-01-15T01:07:12;99401.72;;;6.91;52.62
68822;BME280;55834;50.870;4.606;2023-01-15T01:09:38;99399.00;;;6.69;51.85
68822;BME280;55834;50.870;4.606;2023-01-15T01:12:04;99398.31;;;7.14;51.52
68822;BME280;55834;50.870;4.606;2023-01-15T01:14:29;99399.00;;;6.94;51.65
68822;BME280;55834;50.870;4.606;2023-01-15T01:16:54;99411.22;;;7.20;51.61
68822;BME280;55834;50.870;4.606;2023-01-15T01:19:21;99409.44;;;6.43;52.76
68822;BME280;55834;50.870;4.606;2023-01-15T01:21:48;99419.47;;;6.02;52.67
68822;BME280;55834;50.870;4.606;2023-01-15T01:24:17;99412.84;;;6.46;52.47
68822;BME280;55834;50.870;4.606;2023-01-15T01:26:43;99408.00;;;6.06;51.58
68822;BME280;55834;50.870;4.606;2023-01-15T01:29:19;99419.19;;;5.83;53.87
68822;BME280;55834;50.870;4.606;2023-01-15T01:31:45;99419.09;;;5.86;52.65
68822;BME280;55834;50.870;4.606;2023-01-15T01:34:11;99415.59;;;6.70;51.09
68822;BME280;55834;50.870;4.606;2023-01-15T01:36:39;99411.16;;;6.72;51.71
68822;BME280;55834;50.870;4.606;2023-01-15T01:39:06;99398.13;;;6.69;51.37
68822;BME280;55834;50.870;4.606;2023-01-15T01:41:33;99402.97;;;6.81;50.82
68822;BME280;55834;50.870;4.606;2023-01-15T01:46:24;99405.72;;;6.78;52.55
68822;BME280;55834;50.870;4.606;2023-01-15T01:48:58;99398.72;;;6.50;52.87
68822;BME280;55834;50.870;4.606;2023-01-15T01:51:26;99404.88;;;6.49;53.21
68822;BME280;55834;50.870;4.606;2023-01-15T01:53:54;99402.41;;;6.98;53.15
68822;BME280;55834;50.870;4.606;2023-01-15T01:56:20;99405.28;;;6.64;54.17
68822;BME280;55834;50.870;4.606;2023-01-15T01:58:50;99420.66;;;6.20;55.54
68822;BME280;55834;50.870;4.606;2023-01-15T02:01:18;99412.47;;;6.30;55.58
68822;BME280;55834;50.870;4.606;2023-01-15T02:03:44;99415.34;;;6.23;56.22
68822;BME280;55834;50.870;4.606;2023-01-15T02:06:12;99409.84;;;6.57;55.59
68822;BME280;55834;50.870;4.606;2023-01-15T02:08:38;99399.19;;;6.08;56.03
68822;BME280;55834;50.870;4.606;2023-01-15T02:11:05;99404.78;;;6.26;56.65
68822;BME280;55834;50.870;4.606;2023-01-15T02:13:38;99404.03;;;6.49;55.69
68822;BME280;55834;50.870;4.606;2023-01-15T02:16:23;99389.16;;;7.01;54.80
68822;BME280;55834;50.870;4.606;2023-01-15T02:18:57;99404.56;;;6.32;56.40
68822;BME280;55834;50.870;4.606;2023-01-15T02:21:47;99406.13;;;6.38;55.86
68822;BME280;55834;50.870;4.606;2023-01-15T02:29:39;99382.00;;;6.54;55.46
68822;BME280;55834;50.870;4.606;2023-01-15T02:32:14;99381.72;;;6.62;55.65
68822;BME280;55834;50.870;4.606;2023-01-15T02:34:46;99383.38;;;6.66;55.35
68822;BME280;55834;50.870;4.606;2023-01-15T02:37:17;99376.69;;;6.01;57.11
68822;BME280;55834;50.870;4.606;2023-01-15T02:39:45;99381.91;;;5.73;56.63
68822;BME280;55834;50.870;4.606;2023-01-15T02:42:13;99377.06;;;5.61;57.30
68822;BME280;55834;50.870;4.606;2023-01-15T02:44:42;99398.38;;;6.06;56.33
68822;BME280;55834;50.870;4.606;2023-01-15T02:47:10;99387.75;;;5.83;56.87
68822;BME280;55834;50.870;4.606;2023-01-15T02:49:38;99387.16;;;5.73;56.82
68822;BME280;55834;50.870;4.606;2023-01-15T02:52:27;99394.03;;;5.48;57.89
68822;BME280;55834;50.870;4.606;2023-01-15T02:54:58;99379.84;;;5.55;58.84
68822;BME280;55834;50.870;4.606;2023-01-15T02:57:27;99377.59;;;5.72;57.63
68822;BME280;55834;50.870;4.606;2023-01-15T02:59:57;99378.19;;;5.52;57.77
68822;BME280;55834;50.870;4.606;2023-01-15T03:02:28;99384.41;;;5.78;57.04
68822;BME280;55834;50.870;4.606;2023-01-15T03:05:00;99388.28;;;5.94;58.13
68822;BME280;55834;50.870;4.606;2023-01-15T03:07:34;99385.38;;;5.46;58.43
68822;BME280;55834;50.870;4.606;2023-01-15T03:10:02;99380.03;;;6.06;57.13
68822;BME280;55834;50.870;4.606;2023-01-15T03:12:47;99389.38;;;5.57;57.83
68822;BME280;55834;50.870;4.606;2023-01-15T03:16:15;99390.91;;;5.64;57.86
68822;BME280;55834;50.870;4.606;2023-01-15T03:18:37;99384.09;;;5.29;58.58
68822;BME280;55834;50.870;4.606;2023-01-15T03:21:08;99380.84;;;5.80;56.72
68822;BME280;55834;50.870;4.606;2023-01-15T03:23:37;99383.97;;;5.63;57.63
68822;BME280;55834;50.870;4.606;2023-01-15T03:26:05;99393.00;;;5.53;57.69
68822;BME280;55834;50.870;4.606;2023-01-15T03:28:32;99397.78;;;5.08;58.45
68822;BME280;55834;50.870;4.606;2023-01-15T03:31:00;99401.56;;;5.58;56.90
68822;BME280;55834;50.870;4.606;2023-01-15T03:33:25;99401.16;;;5.42;56.79
68822;BME280;55834;50.870;4.606;2023-01-15T03:35:58;99393.69;;;5.60;57.25
68822;BME280;55834;50.870;4.606;2023-01-15T03:38:27;99393.41;;;5.07;58.86
68822;BME280;55834;50.870;4.606;2023-01-15T03:40:59;99390.75;;;5.71;57.26
68822;BME280;55834;50.870;4.606;2023-01-15T03:43:54;99389.03;;;5.40;57.92
68822;BME280;55834;50.870;4.606;2023-01-15T03:46:43;99387.69;;;5.25;58.77
68822;BME280;55834;50.870;4.606;2023-01-15T03:49:25;99396.41;;;4.91;58.32
68822;BME280;55834;50.870;4.606;2023-01-15T03:52:05;99385.13;;;4.89;58.54
68822;BME280;55834;50.870;4.606;2023-01-15T03:54:41;99400.25;;;5.12;57.87
68822;BME280;55834;50.870;4.606;2023-01-15T03:57:26;99400.03;;;4.87;58.96
68822;BME280;55834;50.870;4.606;2023-01-15T04:00:00;99397.25;;;5.57;57.61
68822;BME280;55834;50.870;4.606;2023-01-15T04:02:29;99401.25;;;5.08;57.90
68822;BME280;55834;50.870;4.606;2023-01-15T04:04:55;99404.84;;;5.03;58.27
68822;BME280;55834;50.870;4.606;2023-01-15T04:07:23;99402.00;;;5.12;58.30
68822;BME280;55834;50.870;4.606;2023-01-15T04:09:50;99404.84;;;4.68;59.33
68822;BME280;55834;50.870;4.606;2023-01-15T04:12:15;99396.56;;;5.19;58.15
68822;BME280;55834;50.870;4.606;2023-01-15T04:14:41;99393.97;;;5.19;57.47
68822;BME280;55834;50.870;4.606;2023-01-15T04:17:06;99392.31;;;5.15;58.61
68822;BME280;55834;50.870;4.606;2023-01-15T04:19:32;99405.00;;;5.29;58.42
68822;BME280;55834;50.870;4.606;2023-01-15T04:21:57;99400.31;;;5.11;58.32
68822;BME280;55834;50.870;4.606;2023-01-15T04:24:23;99404.75;;;5.07;59.05
68822;BME280;55834;50.870;4.606;2023-01-15T04:26:48;99403.00;;;5.08;58.98
68822;BME280;55834;50.870;4.606;2023-01-15T04:29:13;99403.09;;;5.03;59.25
68822;BME280;55834;50.870;4.606;2023-01-15T04:31:39;99409.31;;;4.65;60.11
68822;BME280;55834;50.870;4.606;2023-01-15T04:34:04;99407.97;;;4.84;59.79
68822;BME280;55834;50.870;4.606;2023-01-15T04:36:29;99407.03;;;5.19;57.97
68822;BME280;55834;50.870;4.606;2023-01-15T04:38:55;99429.00;;;4.44;58.87
68822;BME280;55834;50.870;4.606;2023-01-15T04:41:22;99431.31;;;4.56;59.75
68822;BME280;55834;50.870;4.606;2023-01-15T04:44:06;99428.63;;;4.59;58.88
68822;BME280;55834;50.870;4.606;2023-01-15T04:46:34;99417.72;;;4.42;59.64
68822;BME280;55834;50.870;4.606;2023-01-15T04:48:59;99427.84;;;4.56;58.79
68822;BME280;55834;50.870;4.606;2023-01-15T04:51:25;99418.19;;;4.92;58.32
68822;BME280;55834;50.870;4.606;2023-01-15T04:53:50;99419.56;;;5.08;57.89
68822;BME280;55834;50.870;4.606;2023-01-15T04:56:15;99438.44;;;4.85;58.92
68822;BME280;55834;50.870;4.606;2023-01-15T04:58:41;99431.72;;;5.09;58.10
68822;BME280;55834;50.870;4.606;2023-01-15T05:01:14;99424.16;;;4.63;59.08
68822;BME280;55834;50.870;4.606;2023-01-15T05:03:40;99419.16;;;4.55;58.97
68822;BME280;55834;50.870;4.606;2023-01-15T05:06:06;99417.28;;;4.24;59.17
68822;BME280;55834;50.870;4.606;2023-01-15T05:08:32;99415.72;;;4.51;59.89
68822;BME280;55834;50.870;4.606;2023-01-15T05:11:03;99419.66;;;4.69;59.23
68822;BME280;55834;50.870;4.606;2023-01-15T05:13:29;99407.19;;;4.46;59.75
68822;BME280;55834;50.870;4.606;2023-01-15T05:15:56;99393.88;;;4.88;58.97
68822;BME280;55834;50.870;4.606;2023-01-15T05:18:21;99387.13;;;4.81;58.45
68822;BME280;55834;50.870;4.606;2023-01-15T05:20:47;99382.50;;;4.89;59.06
68822;BME280;55834;50.870;4.606;2023-01-15T05:23:12;99397.81;;;4.36;60.03
68822;BME280;55834;50.870;4.606;2023-01-15T05:25:38;99405.97;;;4.22;59.96
68822;BME280;55834;50.870;4.606;2023-01-15T05:28:03;99409.72;;;4.49;59.43
68822;BME280;55834;50.870;4.606;2023-01-15T05:30:29;99405.19;;;4.56;59.24
68822;BME280;55834;50.870;4.606;2023-01-15T05:32:54;99401.13;;;4.44;59.69
68822;BME280;55834;50.870;4.606;2023-01-15T05:35:19;99390.34;;;4.57;59.24
68822;BME280;55834;50.870;4.606;2023-01-15T05:37:44;99394.44;;;4.31;59.09
68822;BME280;55834;50.870;4.606;2023-01-15T05:40:10;99394.06;;;4.48;59.01
68822;BME280;55834;50.870;4.606;2023-01-15T05:42:36;99389.44;;;4.58;58.87
68822;BME280;55834;50.870;4.606;2023-01-15T05:45:01;99377.59;;;4.79;57.97
68822;BME280;55834;50.870;4.606;2023-01-15T05:47:26;99389.44;;;4.58;58.89
68822;BME280;55834;50.870;4.606;2023-01-15T05:49:52;99397.28;;;4.22;60.04
68822;BME280;55834;50.870;4.606;2023-01-15T05:52:17;99388.44;;;3.92;60.64
68822;BME280;55834;50.870;4.606;2023-01-15T05:54:42;99402.63;;;4.17;60.39
68822;BME280;55834;50.870;4.606;2023-01-15T05:57:10;99404.03;;;4.66;58.94
68822;BME280;55834;50.870;4.606;2023-01-15T05:59:36;99415.63;;;4.56;58.86
68822;BME280;55834;50.870;4.606;2023-01-15T06:02:02;99432.94;;;4.26;58.30
68822;BME280;55834;50.870;4.606;2023-01-15T06:04:27;99441.78;;;4.54;58.68
68822;BME280;55834;50.870;4.606;2023-01-15T06:06:54;99434.91;;;4.86;57.43
68822;BME280;55834;50.870;4.606;2023-01-15T06:09:21;99446.53;;;4.39;59.95
68822;BME280;55834;50.870;4.606;2023-01-15T06:11:47;99472.78;;;3.95;62.12
68822;BME280;55834;50.870;4.606;2023-01-15T06:14:13;99465.56;;;3.18;64.18
68822;BME280;55834;50.870;4.606;2023-01-15T06:16:39;99447.63;;;3.49;64.52
68822;BME280;55834;50.870;4.606;2023-01-15T06:19:06;99443.56;;;3.33;64.34
68822;BME280;55834;50.870;4.606;2023-01-15T06:21:32;99432.41;;;3.28;64.20
68822;BME280;55834;50.870;4.606;2023-01-15T06:23:58;99444.19;;;3.89;62.03
68822;BME280;55834;50.870;4.606;2023-01-15T06:26:25;99446.59;;;3.98;61.86
68822;BME280;55834;50.870;4.606;2023-01-15T06:28:50;99445.75;;;3.96;63.27
68822;BME280;55834;50.870;4.606;2023-01-15T06:31:18;99457.22;;;4.29;60.88
68822;BME280;55834;50.870;4.606;2023-01-15T06:33:44;99455.19;;;2.67;64.46
68822;BME280;55834;50.870;4.606;2023-01-15T06:36:15;99444.88;;;3.55;62.04
68822;BME280;55834;50.870;4.606;2023-01-15T06:38:42;99452.72;;;3.55;61.37
68822;BME280;55834;50.870;4.606;2023-01-15T06:41:11;99459.81;;;3.47;62.51
68822;BME280;55834;50.870;4.606;2023-01-15T06:43:55;99458.75;;;3.57;62.05
68822;BME280;55834;50.870;4.606;2023-01-15T06:46:43;99462.03;;;3.69;61.85
68822;BME280;55834;50.870;4.606;2023-01-15T06:49:27;99467.19;;;3.72;61.59
68822;BME280;55834;50.870;4.606;2023-01-15T06:51:53;99463.41;;;3.42;61.79
68822;BME280;55834;50.870;4.606;2023-01-15T06:54:18;99456.56;;;3.79;61.27
68822;BME280;55834;50.870;4.606;2023-01-15T06:56:43;99467.25;;;3.67;62.24
68822;BME280;55834;50.870;4.606;2023-01-15T06:59:09;99458.94;;;3.90;61.73
68822;BME280;55834;50.870;4.606;2023-01-15T07:01:34;99468.94;;;3.70;62.11
68822;BME280;55834;50.870;4.606;2023-01-15T07:03:59;99470.03;;;3.59;62.27
68822;BME280;55834;50.870;4.606;2023-01-15T07:06:25;99474.38;;;3.59;62.77
68822;BME280;55834;50.870;4.606;2023-01-15T07:08:51;99476.28;;;3.94;62.07
68822;BME280;55834;50.870;4.606;2023-01-15T07:11:16;99489.28;;;4.36;60.21
68822;BME280;55834;50.870;4.606;2023-01-15T07:13:42;99475.03;;;4.11;59.64
68822;BME280;55834;50.870;4.606;2023-01-15T07:16:28;99481.94;;;3.73;62.07
68822;BME280;55834;50.870;4.606;2023-01-15T07:18:53;99493.06;;;3.37;64.04
68822;BME280;55834;50.870;4.606;2023-01-15T07:21:19;99486.47;;;4.05;62.15
68822;BME280;55834;50.870;4.606;2023-01-15T07:23:45;99485.91;;;4.31;60.26
68822;BME280;55834;50.870;4.606;2023-01-15T07:26:10;99499.50;;;3.65;61.72
68822;BME280;55834;50.870;4.606;2023-01-15T07:28:36;99501.91;;;3.75;62.96
68822;BME280;55834;50.870;4.606;2023-01-15T07:31:01;99506.31;;;3.27;63.34
68822;BME280;55834;50.870;4.606;2023-01-15T07:33:26;99501.38;;;4.00;61.17
68822;BME280;55834;50.870;4.606;2023-01-15T07:35:52;99499.81;;;4.33;59.90
68822;BME280;55834;50.870;4.606;2023-01-15T07:38:17;99505.41;;;3.74;61.23
68822;BME280;55834;50.870;4.606;2023-01-15T07:40:43;99509.44;;;3.46;62.82
68822;BME280;55834;50.870;4.606;2023-01-15T07:43:09;99510.31;;;3.45;61.55
68822;BME280;55834;50.870;4.606;2023-01-15T07:45:53;99496.69;;;3.75;61.14
68822;BME280;55834;50.870;4.606;2023-01-15T07:48:37;99502.78;;;2.77;63.22
68822;BME280;55834;50.870;4.606;2023-01-15T07:51:21;99523.44;;;2.90;62.01
68822;BME280;55834;50.870;4.606;2023-01-15T07:53:47;99519.56;;;3.13;62.28
68822;BME280;55834;50.870;4.606;2023-01-15T07:56:12;99523.97;;;3.09;62.74
68822;BME280;55834;50.870;4.606;2023-01-15T07:58:38;99535.16;;;3.16;61.64
68822;BME280;55834;50.870;4.606;2023-01-15T08:01:03;99539.78;;;3.51;60.99
68822;BME280;55834;50.870;4.606;2023-01-15T08:03:32;99542.81;;;3.75;59.73
68822;BME280;55834;50.870;4.606;2023-01-15T08:05:57;99544.19;;;3.48;62.19
68822;BME280;55834;50.870;4.606;2023-01-15T08:08:23;99546.34;;;3.26;61.27
68822;BME280;55834;50.870;4.606;2023-01-15T08:10:48;99548.19;;;3.19;61.48
68822;BME280;55834;50.870;4.606;2023-01-15T08:13:41;99550.41;;;3.42;62.16
68822;BME280;55834;50.870;4.606;2023-01-15T08:16:26;99553.81;;;3.46;60.93
68822;BME280;55834;50.870;4.606;2023-01-15T08:18:52;99544.81;;;3.09;62.34
68822;BME280;55834;50.870;4.606;2023-01-15T08:21:17;99542.88;;;3.24;61.75
68822;BME280;55834;50.870;4.606;2023-01-15T08:23:43;99541.69;;;2.89;62.59
68822;BME280;55834;50.870;4.606;2023-01-15T08:26:10;99528.25;;;3.13;62.44
68822;BME280;55834;50.870;4.606;2023-01-15T08:28:36;99528.19;;;3.66;61.24
68822;BME280;55834;50.870;4.606;2023-01-15T08:31:01;99534.09;;;3.29;62.21
68822;BME280;55834;50.870;4.606;2023-01-15T08:33:26;99530.16;;;3.53;61.97
68822;BME280;55834;50.870;4.606;2023-01-15T08:35:52;99537.47;;;3.34;62.22
68822;BME280;55834;50.870;4.606;2023-01-15T08:38:17;99539.41;;;3.23;62.22
68822;BME280;55834;50.870;4.606;2023-01-15T08:40:42;99542.09;;;3.67;60.95
68822;BME280;55834;50.870;4.606;2023-01-15T08:43:24;99545.25;;;3.84;60.38
68822;BME280;55834;50.870;4.606;2023-01-15T08:45:50;99549.13;;;3.12;61.80
68822;BME280;55834;50.870;4.606;2023-01-15T08:48:16;99533.34;;;3.23;62.02
68822;BME280;55834;50.870;4.606;2023-01-15T08:50:42;99538.88;;;3.01;62.06
68822;BME280;55834;50.870;4.606;2023-01-15T08:53:07;99531.19;;;3.46;62.34
68822;BME280;55834;50.870;4.606;2023-01-15T08:55:32;99519.63;;;3.59;60.94
68822;BME280;55834;50.870;4.606;2023-01-15T08:57:58;99520.38;;;3.66;60.84
68822;BME280;55834;50.870;4.606;2023-01-15T09:00:23;99524.88;;;3.58;60.47
68822;BME280;55834;50.870;4.606;2023-01-15T09:02:49;99517.41;;;3.38;61.57
68822;BME280;55834;50.870;4.606;2023-01-15T09:05:15;99524.31;;;3.40;61.39
68822;BME280;55834;50.870;4.606;2023-01-15T09:07:40;99527.53;;;3.55;60.23
68822;BME280;55834;50.870;4.606;2023-01-15T09:10:06;99522.06;;;3.69;60.15
68822;BME280;55834;50.870;4.606;2023-01-15T09:12:32;99519.47;;;3.67;59.89
68822;BME280;55834;50.870;4.606;2023-01-15T09:14:57;99526.47;;;3.65;60.02
68822;BME280;55834;50.870;4.606;2023-01-15T09:17:22;99531.66;;;3.68;59.88
68822;BME280;55834;50.870;4.606;2023-01-15T09:19:48;99539.69;;;3.56;61.08
68822;BME280;55834;50.870;4.606;2023-01-15T09:22:13;99536.81;;;3.70;59.71
68822;BME280;55834;50.870;4.606;2023-01-15T09:24:38;99544.72;;;4.08;58.25
68822;BME280;55834;50.870;4.606;2023-01-15T09:27:04;99564.94;;;3.55;59.67
68822;BME280;55834;50.870;4.606;2023-01-15T09:29:29;99564.50;;;3.30;59.73
68822;BME280;55834;50.870;4.606;2023-01-15T09:31:54;99552.84;;;3.50;59.50
68822;BME280;55834;50.870;4.606;2023-01-15T09:34:20;99568.09;;;3.25;60.30
68822;BME280;55834;50.870;4.606;2023-01-15T09:36:46;99572.53;;;3.20;58.59
68822;BME280;55834;50.870;4.606;2023-01-15T09:39:11;99587.34;;;3.67;58.33
68822;BME280;55834;50.870;4.606;2023-01-15T09:57:23;99589.31;;;3.02;60.47
68822;BME280;55834;50.870;4.606;2023-01-15T09:59:50;99601.78;;;2.80;60.51
68822;BME280;55834;50.870;4.606;2023-01-15T10:02:20;99588.19;;;3.15;60.69
68822;BME280;55834;50.870;4.606;2023-01-15T10:04:51;99608.66;;;2.22;62.68
68822;BME280;55834;50.870;4.606;2023-01-15T10:09:53;99615.44;;;2.95;60.44
68822;BME280;55834;50.870;4.606;2023-01-15T10:12:27;99610.59;;;3.31;60.11
68822;BME280;55834;50.870;4.606;2023-01-15T10:17:57;99611.69;;;2.56;61.35
68822;BME280;55834;50.870;4.606;2023-01-15T10:23:05;99617.34;;;2.86;61.08
68822;BME280;55834;50.870;4.606;2023-01-15T10:25:50;99621.31;;;3.10;60.57
68822;BME280;55834;50.870;4.606;2023-01-15T10:28:30;99625.53;;;2.61;60.86
68822;BME280;55834;50.870;4.606;2023-01-15T10:31:01;99603.69;;;2.70;61.35
68822;BME280;55834;50.870;4.606;2023-01-15T10:33:44;99613.78;;;2.93;60.03
68822;BME280;55834;50.870;4.606;2023-01-15T10:36:31;99603.44;;;2.85;60.99
68822;BME280;55834;50.870;4.606;2023-01-15T10:45:12;99588.69;;;3.40;59.41
68822;BME280;55834;50.870;4.606;2023-01-15T10:47:42;99588.75;;;2.80;61.20
68822;BME280;55834;50.870;4.606;2023-01-15T10:50:16;99613.41;;;2.57;62.63
68822;BME280;55834;50.870;4.606;2023-01-15T10:52:47;99611.06;;;2.98;60.83
68822;BME280;55834;50.870;4.606;2023-01-15T10:55:28;99608.66;;;2.85;60.93
68822;BME280;55834;50.870;4.606;2023-01-15T10:58:16;99613.16;;;3.34;60.34
68822;BME280;55834;50.870;4.606;2023-01-15T11:00:53;99611.06;;;3.53;59.66
68822;BME280;55834;50.870;4.606;2023-01-15T11:03:45;99616.19;;;3.05;60.69
68822;BME280;55834;50.870;4.606;2023-01-15T11:06:14;99605.78;;;3.56;59.09
68822;BME280;55834;50.870;4.606;2023-01-15T11:08:52;99628.56;;;3.48;58.65
68822;BME280;55834;50.870;4.606;2023-01-15T11:11:22;99613.22;;;3.30;59.67
68822;BME280;55834;50.870;4.606;2023-01-15T11:14:09;99607.78;;;3.90;58.54
68822;BME280;55834;50.870;4.606;2023-01-15T11:16:53;99584.03;;;4.02;57.99
68822;BME280;55834;50.870;4.606;2023-01-15T11:19:34;99603.06;;;3.64;58.52
68822;BME280;55834;50.870;4.606;2023-01-15T11:22:14;99610.75;;;3.72;58.25
68822;BME280;55834;50.870;4.606;2023-01-15T11:24:56;99609.16;;;3.63;58.24
68822;BME280;55834;50.870;4.606;2023-01-15T11:27:26;99606.69;;;3.57;58.11
68822;BME280;55834;50.870;4.606;2023-01-15T11:30:00;99590.16;;;4.01;58.15
68822;BME280;55834;50.870;4.606;2023-01-15T11:32:35;99608.56;;;3.47;58.64
68822;BME280;55834;50.870;4.606;2023-01-15T11:37:32;99584.34;;;4.30;56.40
68822;BME280;55834;50.870;4.606;2023-01-15T11:39:59;99621.03;;;3.81;58.20
68822;BME280;55834;50.870;4.606;2023-01-15T11:42:30;99599.75;;;3.00;59.06
68822;BME280;55834;50.870;4.606;2023-01-15T11:45:16;99607.13;;;3.79;58.54
68822;BME280;55834;50.870;4.606;2023-01-15T11:48:01;99587.09;;;3.79;58.48
68822;BME280;55834;50.870;4.606;2023-01-15T11:50:59;99592.00;;;3.50;58.60
68822;BME280;55834;50.870;4.606;2023-01-15T11:53:31;99591.88;;;4.02;56.92
68822;BME280;55834;50.870;4.606;2023-01-15T11:56:03;99576.78;;;4.17;56.72
68822;BME280;55834;50.870;4.606;2023-01-15T11:58:52;99579.00;;;3.95;57.40
68822;BME280;55834;50.870;4.606;2023-01-15T12:04:28;99584.97;;;4.00;57.13
68822;BME280;55834;50.870;4.606;2023-01-15T12:06:55;99581.28;;;4.52;56.00
68822;BME280;55834;50.870;4.606;2023-01-15T12:18:16;99575.28;;;4.06;56.70
68822;BME280;55834;50.870;4.606;2023-01-15T12:31:32;99567.53;;;5.18;54.04
68822;BME280;55834;50.870;4.606;2023-01-15T12:36:40;99574.34;;;4.88;54.91
68822;BME280;55834;50.870;4.606;2023-01-15T12:41:45;99548.38;;;4.03;57.15
68822;BME280;55834;50.870;4.606;2023-01-15T12:44:49;99548.56;;;3.92;56.68
68822;BME280;55834;50.870;4.606;2023-01-15T12:50:40;99551.72;;;4.08;56.36
68822;BME280;55834;50.870;4.606;2023-01-15T12:53:26;99567.34;;;3.66;56.96
68822;BME280;55834;50.870;4.606;2023-01-15T13:01:28;99544.72;;;4.50;56.22
68822;BME280;55834;50.870;4.606;2023-01-15T13:04:16;99555.97;;;4.54;55.62
68822;BME280;55834;50.870;4.606;2023-01-15T13:06:49;99537.91;;;4.43;56.23
68822;BME280;55834;50.870;4.606;2023-01-15T13:09:33;99540.41;;;4.87;55.97
68822;BME280;55834;50.870;4.606;2023-01-15T13:12:02;99548.44;;;4.78;56.53
68822;BME280;55834;50.870;4.606;2023-01-15T13:14:28;99544.41;;;5.00;55.35
68822;BME280;55834;50.870;4.606;2023-01-15T13:16:59;99552.31;;;4.98;54.76
68822;BME280;55834;50.870;4.606;2023-01-15T13:20:11;99550.56;;;4.62;54.67
68822;BME280;55834;50.870;4.606;2023-01-15T13:22:23;99547.41;;;4.05;56.17
68822;BME280;55834;50.870;4.606;2023-01-15T13:25:04;99542.81;;;4.17;56.79
68822;BME280;55834;50.870;4.606;2023-01-15T13:28:04;99542.25;;;4.44;55.53
68822;BME280;55834;50.870;4.606;2023-01-15T13:30:47;99550.72;;;4.56;55.56
68822;BME280;55834;50.870;4.606;2023-01-15T13:33:22;99543.94;;;4.84;55.38
68822;BME280;55834;50.870;4.606;2023-01-15T13:35:53;99564.69;;;4.13;56.38
68822;BME280;55834;50.870;4.606;2023-01-15T13:38:23;99551.91;;;4.41;56.50
68822;BME280;55834;50.870;4.606;2023-01-15T13:40:52;99562.97;;;4.89;54.81
68822;BME280;55834;50.870;4.606;2023-01-15T13:43:38;99560.59;;;4.41;55.80
68822;BME280;55834;50.870;4.606;2023-01-15T13:46:07;99577.00;;;3.61;58.03
68822;BME280;55834;50.870;4.606;2023-01-15T13:48:45;99557.50;;;4.24;57.55
68822;BME280;55834;50.870;4.606;2023-01-15T13:51:32;99557.78;;;4.50;57.72
68822;BME280;55834;50.870;4.606;2023-01-15T13:54:12;99561.78;;;5.04;55.96
68822;BME280;55834;50.870;4.606;2023-01-15T13:56:40;99573.72;;;4.79;56.15
68822;BME280;55834;50.870;4.606;2023-01-15T14:01:53;99577.97;;;4.44;58.50
68822;BME280;55834;50.870;4.606;2023-01-15T14:04:32;99581.66;;;4.35;58.33
68822;BME280;55834;50.870;4.606;2023-01-15T14:06:59;99585.06;;;3.47;59.98
68822;BME280;55834;50.870;4.606;2023-01-15T14:09:27;99586.09;;;4.30;58.70
68822;BME280;55834;50.870;4.606;2023-01-15T14:14:45;99565.03;;;4.76;58.52
68822;BME280;55834;50.870;4.606;2023-01-15T14:20:20;99581.28;;;4.12;60.93
68822;BME280;55834;50.870;4.606;2023-01-15T14:28:47;99569.91;;;4.13;60.78
68822;BME280;55834;50.870;4.606;2023-01-15T14:34:23;99584.47;;;4.26;59.78
68822;BME280;55834;50.870;4.606;2023-01-15T14:36:59;99583.16;;;4.03;60.68
68822;BME280;55834;50.870;4.606;2023-01-15T14:39:54;99591.13;;;4.41;60.43
68822;BME280;55834;50.870;4.606;2023-01-15T14:42:25;99592.66;;;4.07;61.12
68822;BME280;55834;50.870;4.606;2023-01-15T14:50:31;99591.81;;;3.59;62.32
68822;BME280;55834;50.870;4.606;2023-01-15T14:53:43;99593.69;;;3.99;60.90
68822;BME280;55834;50.870;4.606;2023-01-15T14:55:56;99595.50;;;3.95;60.63
68822;BME280;55834;50.870;4.606;2023-01-15T15:01:38;99609.28;;;4.03;60.15
68822;BME280;55834;50.870;4.606;2023-01-15T15:07:12;99621.44;;;4.06;60.51
68822;BME280;55834;50.870;4.606;2023-01-15T15:09:41;99616.88;;;4.16;60.67
68822;BME280;55834;50.870;4.606;2023-01-15T15:12:25;99618.38;;;3.33;62.38
68822;BME280;55834;50.870;4.606;2023-01-15T15:15:00;99620.03;;;3.38;61.81